sensor_id;sensor_type;location;lat;lon;timestamp;P1;durP1;ratioP1;P2;durP2;ratioP2
5175;SDS011;2607;50.934;6.934;2023-04-03T00:00:30;2.70;;;2.50;;
5175;SDS011;2607;50.934;6.934;2023-04-03T00:02:56;2.77;;;2.60;;
5175;SDS011;2607;50.934;6.934;2023-04-03T00:05:22;2.10;;;2.00;;
5175;SDS011;2607;50.934;6.934;2023-04-03T00:07:47;2.80;;;2.60;;
5175;SDS011;2607;50.934;6.934;2023-04-03T00:10:14;2.93;;;2.60;;
5175;SDS011;2607;50.934;6.934;2023-04-03T00:12:40;3.10;;;2.90;;
5175;SDS011;2607;50.934;6.934;2023-04-03T00:15:06;2.63;;;2.23;;
5175;SDS011;2607;50.934;6.934;2023-04-03T00:17:32;3.23;;;2.43;;
5175;SDS011;2607;50.934;6.934;2023-04-03T00:19:58;2.10;;;2.00;;
5175;SDS011;2607;50.934;6.934;2023-04-03T00:22:24;2.53;;;2.33;;
5175;SDS011;2607;50.934;6.934;2023-04-03T00:24:51;3.03;;;2.93;;
5175;SDS011;2607;50.934;6.934;2023-04-03T00:27:17;2.70;;;2.60;;
5175;SDS011;2607;50.934;6.934;2023-04-03T00:29:42;2.73;;;2.50;;
5175;SDS011;2607;50.934;6.934;2023-04-03T00:32:08;2.50;;;2.40;;
5175;SDS011;2607;50.934;6.934;2023-04-03T00:34:33;2.67;;;2.47;;
5175;SDS011;2607;50.934;6.934;2023-04-03T00:36:59;2.20;;;2.20;;
5175;SDS011;2607;50.934;6.934;2023-04-03T00:39:24;2.70;;;2.53;;
5175;SDS011;2607;50.934;6.934;2023-04-03T00:41:50;2.90;;;2.70;;
5175;SDS011;2607;50.934;6.934;2023-04-03T00:46:53;4.00;;;2.43;;
5175;SDS011;2607;50.934;6.934;2023-04-03T00:49:19;3.80;;;3.53;;
5175;SDS011;2607;50.934;6.934;2023-04-03T00:51:45;3.17;;;2.87;;
5175;SDS011;2607;50.934;6.934;2023-04-03T00:54:10;3.47;;;2.73;;
5175;SDS011;2607;50.934;6.934;2023-04-03T00:56:37;4.63;;;2.53;;
5175;SDS011;2607;50.934;6.934;2023-04-03T00:59:07;3.37;;;3.07;;
5175;SDS011;2607;50.934;6.934;2023-04-03T01:01:39;3.67;;;2.80;;
5175;SDS011;2607;50.934;6.934;2023-04-03T01:04:06;2.93;;;2.73;;
5175;SDS011;2607;50.934;6.934;2023-04-03T01:06:52;3.10;;;2.70;;
5175;SDS011;2607;50.934;6.934;2023-04-03T01:09:20;2.43;;;2.27;;
5175;SDS011;2607;50.934;6.934;2023-04-03T01:11:46;2.83;;;2.57;;
5175;SDS011;2607;50.934;6.934;2023-04-03T01:14:12;2.57;;;2.47;;
5175;SDS011;2607;50.934;6.934;2023-04-03T01:16:38;2.60;;;2.50;;
5175;SDS011;2607;50.934;6.934;2023-04-03T01:19:05;3.07;;;2.47;;
5175;SDS011;2607;50.934;6.934;2023-04-03T01:21:45;2.57;;;2.47;;
5175;SDS011;2607;50.934;6.934;2023-04-03T01:24:50;2.20;;;2.10;;
5175;SDS011;2607;50.934;6.934;2023-04-03T01:27:18;3.73;;;2.27;;
5175;SDS011;2607;50.934;6.934;2023-04-03T01:29:43;2.03;;;1.93;;
5175;SDS011;2607;50.934;6.934;2023-04-03T01:32:09;2.30;;;2.10;;
5175;SDS011;2607;50.934;6.934;2023-04-03T01:34:35;2.10;;;2.00;;
5175;SDS011;2607;50.934;6.934;2023-04-03T01:37:01;2.20;;;1.80;;
5175;SDS011;2607;50.934;6.934;2023-04-03T01:39:27;2.70;;;2.00;;
5175;SDS011;2607;50.934;6.934;2023-04-03T01:41:52;2.53;;;1.80;;
5175;SDS011;2607;50.934;6.934;2023-04-03T01:44:18;2.10;;;2.00;;
5175;SDS011;2607;50.934;6.934;2023-04-03T01:46:43;2.13;;;2.03;;
5175;SDS011;2607;50.934;6.934;2023-04-03T01:49:09;2.33;;;2.23;;
5175;SDS011;2607;50.934;6.934;2023-04-03T01:51:35;2.20;;;2.10;;
5175;SDS011;2607;50.934;6.934;2023-04-03T01:54:00;2.67;;;2.20;;
5175;SDS011;2607;50.934;6.934;2023-04-03T01:56:26;2.70;;;2.50;;
5175;SDS011;2607;50.934;6.934;2023-04-03T01:58:52;3.40;;;2.33;;
5175;SDS011;2607;50.934;6.934;2023-04-03T02:01:17;2.57;;;2.40;;
5175;SDS011;2607;50.934;6.934;2023-04-03T02:03:43;2.80;;;2.60;;
5175;SDS011;2607;50.934;6.934;2023-04-03T02:06:08;2.63;;;2.53;;
5175;SDS011;2607;50.934;6.934;2023-04-03T02:08:34;3.23;;;3.03;;
5175;SDS011;2607;50.934;6.934;2023-04-03T02:11:00;2.97;;;2.47;;
5175;SDS011;2607;50.934;6.934;2023-04-03T02:13:25;2.87;;;2.77;;
5175;SDS011;2607;50.934;6.934;2023-04-03T02:15:51;2.93;;;2.73;;
5175;SDS011;2607;50.934;6.934;2023-04-03T02:18:16;3.00;;;2.80;;
5175;SDS011;2607;50.934;6.934;2023-04-03T02:20:42;2.90;;;2.70;;
5175;SDS011;2607;50.934;6.934;2023-04-03T02:23:08;2.40;;;2.30;;
5175;SDS011;2607;50.934;6.934;2023-04-03T02:25:34;3.97;;;2.63;;
5175;SDS011;2607;50.934;6.934;2023-04-03T02:27:59;2.50;;;2.30;;
5175;SDS011;2607;50.934;6.934;2023-04-03T02:30:25;2.80;;;2.70;;
5175;SDS011;2607;50.934;6.934;2023-04-03T02:32:51;2.53;;;2.43;;
5175;SDS011;2607;50.934;6.934;2023-04-03T02:35:17;2.70;;;2.60;;
5175;SDS011;2607;50.934;6.934;2023-04-03T02:37:42;2.70;;;2.50;;
5175;SDS011;2607;50.934;6.934;2023-04-03T02:40:08;2.70;;;2.50;;
5175;SDS011;2607;50.934;6.934;2023-04-03T02:42:34;2.83;;;2.63;;
5175;SDS011;2607;50.934;6.934;2023-04-03T02:45:00;2.97;;;2.87;;
5175;SDS011;2607;50.934;6.934;2023-04-03T02:47:26;5.07;;;3.40;;
5175;SDS011;2607;50.934;6.934;2023-04-03T02:49:52;4.60;;;2.63;;
5175;SDS011;2607;50.934;6.934;2023-04-03T02:52:18;3.60;;;3.30;;
5175;SDS011;2607;50.934;6.934;2023-04-03T02:54:43;5.90;;;2.90;;
5175;SDS011;2607;50.934;6.934;2023-04-03T02:57:09;5.87;;;3.43;;
5175;SDS011;2607;50.934;6.934;2023-04-03T02:59:35;3.23;;;3.13;;
5175;SDS011;2607;50.934;6.934;2023-04-03T03:02:02;2.80;;;2.70;;
5175;SDS011;2607;50.934;6.934;2023-04-03T03:04:27;4.93;;;2.90;;
5175;SDS011;2607;50.934;6.934;2023-04-03T03:06:53;3.47;;;3.17;;
5175;SDS011;2607;50.934;6.934;2023-04-03T03:09:18;3.13;;;2.93;;
5175;SDS011;2607;50.934;6.934;2023-04-03T03:11:44;3.40;;;3.10;;
5175;SDS011;2607;50.934;6.934;2023-04-03T03:14:10;2.73;;;2.70;;
5175;SDS011;2607;50.934;6.934;2023-04-03T03:16:35;3.00;;;2.90;;
5175;SDS011;2607;50.934;6.934;2023-04-03T03:19:01;3.37;;;3.10;;
5175;SDS011;2607;50.934;6.934;2023-04-03T03:21:27;2.93;;;2.73;;
5175;SDS011;2607;50.934;6.934;2023-04-03T03:23:52;3.10;;;2.80;;
5175;SDS011;2607;50.934;6.934;2023-04-03T03:26:18;3.13;;;2.40;;
5175;SDS011;2607;50.934;6.934;2023-04-03T03:28:44;3.73;;;2.40;;
5175;SDS011;2607;50.934;6.934;2023-04-03T03:31:10;2.67;;;2.57;;
5175;SDS011;2607;50.934;6.934;2023-04-03T03:33:36;3.47;;;3.20;;
5175;SDS011;2607;50.934;6.934;2023-04-03T03:36:01;2.80;;;2.60;;
5175;SDS011;2607;50.934;6.934;2023-04-03T03:38:27;2.27;;;2.17;;
5175;SDS011;2607;50.934;6.934;2023-04-03T03:40:53;2.73;;;2.43;;
5175;SDS011;2607;50.934;6.934;2023-04-03T03:43:18;3.30;;;2.60;;
5175;SDS011;2607;50.934;6.934;2023-04-03T03:45:45;2.20;;;2.10;;
5175;SDS011;2607;50.934;6.934;2023-04-03T03:48:15;3.10;;;2.80;;
5175;SDS011;2607;50.934;6.934;2023-04-03T03:50:40;2.97;;;2.77;;
5175;SDS011;2607;50.934;6.934;2023-04-03T03:53:06;3.70;;;2.30;;
5175;SDS011;2607;50.934;6.934;2023-04-03T03:55:31;2.50;;;2.40;;
5175;SDS011;2607;50.934;6.934;2023-04-03T03:57:57;2.47;;;2.37;;
5175;SDS011;2607;50.934;6.934;2023-04-03T04:00:22;2.60;;;2.10;;
5175;SDS011;2607;50.934;6.934;2023-04-03T04:02:48;2.53;;;2.33;;
5175;SDS011;2607;50.934;6.934;2023-04-03T04:05:13;3.50;;;2.50;;
5175;SDS011;2607;50.934;6.934;2023-04-03T04:07:39;2.27;;;2.17;;
5175;SDS011;2607;50.934;6.934;2023-04-03T04:10:05;2.07;;;1.97;;
5175;SDS011;2607;50.934;6.934;2023-04-03T04:12:31;3.07;;;2.50;;
5175;SDS011;2607;50.934;6.934;2023-04-03T04:14:56;3.13;;;1.77;;
5175;SDS011;2607;50.934;6.934;2023-04-03T04:17:22;2.97;;;2.77;;
5175;SDS011;2607;50.934;6.934;2023-04-03T04:19:47;2.77;;;2.60;;
5175;SDS011;2607;50.934;6.934;2023-04-03T04:22:13;2.00;;;1.90;;
5175;SDS011;2607;50.934;6.934;2023-04-03T04:24:38;2.83;;;2.13;;
5175;SDS011;2607;50.934;6.934;2023-04-03T04:27:04;2.33;;;2.17;;
5175;SDS011;2607;50.934;6.934;2023-04-03T04:29:30;6.63;;;2.00;;
5175;SDS011;2607;50.934;6.934;2023-04-03T04:32:00;2.13;;;2.03;;
5175;SDS011;2607;50.934;6.934;2023-04-03T04:34:25;2.50;;;2.40;;
5175;SDS011;2607;50.934;6.934;2023-04-03T04:36:51;1.90;;;1.90;;
5175;SDS011;2607;50.934;6.934;2023-04-03T04:39:17;3.90;;;2.70;;
5175;SDS011;2607;50.934;6.934;2023-04-03T04:41:42;3.50;;;2.00;;
5175;SDS011;2607;50.934;6.934;2023-04-03T04:44:08;3.07;;;2.77;;
5175;SDS011;2607;50.934;6.934;2023-04-03T04:46:33;2.40;;;2.30;;
5175;SDS011;2607;50.934;6.934;2023-04-03T04:48:59;5.60;;;2.20;;
5175;SDS011;2607;50.934;6.934;2023-04-03T04:51:24;3.17;;;2.87;;
5175;SDS011;2607;50.934;6.934;2023-04-03T04:53:50;3.63;;;2.13;;
5175;SDS011;2607;50.934;6.934;2023-04-03T04:56:16;2.30;;;2.17;;
5175;SDS011;2607;50.934;6.934;2023-04-03T04:58:41;2.33;;;2.23;;
5175;SDS011;2607;50.934;6.934;2023-04-03T05:01:08;3.30;;;3.00;;
5175;SDS011;2607;50.934;6.934;2023-04-03T05:03:34;2.47;;;2.27;;
5175;SDS011;2607;50.934;6.934;2023-04-03T05:06:01;3.33;;;2.13;;
5175;SDS011;2607;50.934;6.934;2023-04-03T05:08:27;3.23;;;2.40;;
5175;SDS011;2607;50.934;6.934;2023-04-03T05:10:52;2.37;;;2.17;;
5175;SDS011;2607;50.934;6.934;2023-04-03T05:13:18;4.90;;;3.50;;
5175;SDS011;2607;50.934;6.934;2023-04-03T05:15:44;2.60;;;2.40;;
5175;SDS011;2607;50.934;6.934;2023-04-03T05:18:10;2.17;;;2.07;;
5175;SDS011;2607;50.934;6.934;2023-04-03T05:20:36;2.33;;;2.13;;
5175;SDS011;2607;50.934;6.934;2023-04-03T05:23:02;2.73;;;2.53;;
5175;SDS011;2607;50.934;6.934;2023-04-03T05:25:27;1.93;;;1.70;;
5175;SDS011;2607;50.934;6.934;2023-04-03T05:27:53;4.43;;;2.20;;
5175;SDS011;2607;50.934;6.934;2023-04-03T05:30:18;2.63;;;1.73;;
5175;SDS011;2607;50.934;6.934;2023-04-03T05:32:44;5.70;;;2.60;;
5175;SDS011;2607;50.934;6.934;2023-04-03T05:35:10;2.00;;;1.90;;
5175;SDS011;2607;50.934;6.934;2023-04-03T05:37:36;2.13;;;1.90;;
5175;SDS011;2607;50.934;6.934;2023-04-03T05:40:02;1.87;;;1.77;;
5175;SDS011;2607;50.934;6.934;2023-04-03T05:42:28;1.90;;;1.70;;
5175;SDS011;2607;50.934;6.934;2023-04-03T05:44:54;2.67;;;1.90;;
5175;SDS011;2607;50.934;6.934;2023-04-03T05:47:20;5.20;;;1.57;;
5175;SDS011;2607;50.934;6.934;2023-04-03T05:49:45;2.30;;;2.10;;
5175;SDS011;2607;50.934;6.934;2023-04-03T05:52:16;1.87;;;1.77;;
5175;SDS011;2607;50.934;6.934;2023-04-03T05:54:57;2.80;;;2.00;;
5175;SDS011;2607;50.934;6.934;2023-04-03T05:57:23;2.80;;;2.07;;
5175;SDS011;2607;50.934;6.934;2023-04-03T05:59:49;1.70;;;1.60;;
5175;SDS011;2607;50.934;6.934;2023-04-03T06:02:19;4.10;;;2.07;;
5175;SDS011;2607;50.934;6.934;2023-04-03T06:04:46;2.30;;;2.03;;
5175;SDS011;2607;50.934;6.934;2023-04-03T06:07:13;1.60;;;1.50;;
5175;SDS011;2607;50.934;6.934;2023-04-03T06:09:46;2.10;;;2.00;;
5175;SDS011;2607;50.934;6.934;2023-04-03T06:12:12;1.50;;;1.50;;
5175;SDS011;2607;50.934;6.934;2023-04-03T06:14:38;3.53;;;1.90;;
5175;SDS011;2607;50.934;6.934;2023-04-03T06:17:03;1.90;;;1.70;;
5175;SDS011;2607;50.934;6.934;2023-04-03T06:19:29;5.37;;;2.13;;
5175;SDS011;2607;50.934;6.934;2023-04-03T06:21:55;2.13;;;2.03;;
5175;SDS011;2607;50.934;6.934;2023-04-03T06:24:21;2.10;;;2.00;;
5175;SDS011;2607;50.934;6.934;2023-04-03T06:26:49;2.10;;;2.00;;
5175;SDS011;2607;50.934;6.934;2023-04-03T06:29:16;2.17;;;2.00;;
5175;SDS011;2607;50.934;6.934;2023-04-03T06:31:42;4.60;;;1.87;;
5175;SDS011;2607;50.934;6.934;2023-04-03T06:34:08;5.93;;;1.97;;
5175;SDS011;2607;50.934;6.934;2023-04-03T06:36:34;2.37;;;1.93;;
5175;SDS011;2607;50.934;6.934;2023-04-03T06:39:00;1.90;;;1.80;;
5175;SDS011;2607;50.934;6.934;2023-04-03T06:41:26;3.67;;;2.53;;
5175;SDS011;2607;50.934;6.934;2023-04-03T06:43:52;2.23;;;2.10;;
5175;SDS011;2607;50.934;6.934;2023-04-03T06:46:18;3.80;;;1.80;;
5175;SDS011;2607;50.934;6.934;2023-04-03T06:48:46;5.40;;;1.77;;
5175;SDS011;2607;50.934;6.934;2023-04-03T06:51:21;2.70;;;1.87;;
5175;SDS011;2607;50.934;6.934;2023-04-03T06:53:49;2.67;;;1.97;;
5175;SDS011;2607;50.934;6.934;2023-04-03T06:56:16;1.70;;;1.53;;
5175;SDS011;2607;50.934;6.934;2023-04-03T06:58:42;1.83;;;1.70;;
5175;SDS011;2607;50.934;6.934;2023-04-03T07:01:12;1.93;;;1.67;;
5175;SDS011;2607;50.934;6.934;2023-04-03T07:03:39;2.30;;;1.90;;
5175;SDS011;2607;50.934;6.934;2023-04-03T07:06:05;3.53;;;2.80;;
5175;SDS011;2607;50.934;6.934;2023-04-03T07:08:32;3.47;;;3.23;;
5175;SDS011;2607;50.934;6.934;2023-04-03T07:10:59;2.37;;;2.20;;
5175;SDS011;2607;50.934;6.934;2023-04-03T07:13:25;5.00;;;2.70;;
5175;SDS011;2607;50.934;6.934;2023-04-03T07:15:51;3.33;;;2.37;;
5175;SDS011;2607;50.934;6.934;2023-04-03T07:18:17;2.77;;;2.33;;
5175;SDS011;2607;50.934;6.934;2023-04-03T07:20:42;2.97;;;2.40;;
5175;SDS011;2607;50.934;6.934;2023-04-03T07:23:08;2.90;;;2.43;;
5175;SDS011;2607;50.934;6.934;2023-04-03T07:25:34;2.97;;;2.00;;
5175;SDS011;2607;50.934;6.934;2023-04-03T07:28:00;2.67;;;2.47;;
5175;SDS011;2607;50.934;6.934;2023-04-03T07:30:25;4.97;;;2.00;;
5175;SDS011;2607;50.934;6.934;2023-04-03T07:32:51;2.10;;;2.00;;
5175;SDS011;2607;50.934;6.934;2023-04-03T07:35:17;3.70;;;2.43;;
5175;SDS011;2607;50.934;6.934;2023-04-03T07:37:43;3.53;;;2.70;;
5175;SDS011;2607;50.934;6.934;2023-04-03T07:40:08;4.77;;;3.20;;
5175;SDS011;2607;50.934;6.934;2023-04-03T07:42:35;3.30;;;2.40;;
5175;SDS011;2607;50.934;6.934;2023-04-03T07:45:01;2.20;;;2.10;;
5175;SDS011;2607;50.934;6.934;2023-04-03T07:47:30;3.10;;;2.23;;
5175;SDS011;2607;50.934;6.934;2023-04-03T07:49:56;6.30;;;2.37;;
5175;SDS011;2607;50.934;6.934;2023-04-03T07:52:23;6.27;;;2.10;;
5175;SDS011;2607;50.934;6.934;2023-04-03T07:54:48;2.40;;;1.70;;
5175;SDS011;2607;50.934;6.934;2023-04-03T07:57:14;6.73;;;2.17;;
5175;SDS011;2607;50.934;6.934;2023-04-03T07:59:40;1.90;;;1.80;;
5175;SDS011;2607;50.934;6.934;2023-04-03T08:02:08;2.60;;;1.97;;
5175;SDS011;2607;50.934;6.934;2023-04-03T08:04:35;3.80;;;1.67;;
5175;SDS011;2607;50.934;6.934;2023-04-03T08:07:00;2.90;;;1.90;;
5175;SDS011;2607;50.934;6.934;2023-04-03T08:09:26;3.33;;;1.83;;
5175;SDS011;2607;50.934;6.934;2023-04-03T08:11:52;2.00;;;1.90;;
5175;SDS011;2607;50.934;6.934;2023-04-03T08:14:18;4.13;;;2.43;;
5175;SDS011;2607;50.934;6.934;2023-04-03T08:16:45;2.00;;;1.80;;
5175;SDS011;2607;50.934;6.934;2023-04-03T08:19:12;1.50;;;1.50;;
5175;SDS011;2607;50.934;6.934;2023-04-03T08:21:40;1.90;;;1.60;;
5175;SDS011;2607;50.934;6.934;2023-04-03T08:24:06;2.37;;;1.43;;
5175;SDS011;2607;50.934;6.934;2023-04-03T08:26:33;1.77;;;1.67;;
5175;SDS011;2607;50.934;6.934;2023-04-03T08:28:59;2.60;;;2.03;;
5175;SDS011;2607;50.934;6.934;2023-04-03T08:31:24;3.20;;;2.47;;
5175;SDS011;2607;50.934;6.934;2023-04-03T08:33:50;2.87;;;2.63;;
5175;SDS011;2607;50.934;6.934;2023-04-03T08:36:26;4.07;;;2.03;;
5175;SDS011;2607;50.934;6.934;2023-04-03T08:38:54;1.60;;;1.50;;
5175;SDS011;2607;50.934;6.934;2023-04-03T08:41:28;1.87;;;1.77;;
5175;SDS011;2607;50.934;6.934;2023-04-03T08:44:17;1.40;;;1.30;;
5175;SDS011;2607;50.934;6.934;2023-04-03T08:47:14;1.50;;;1.40;;
5175;SDS011;2607;50.934;6.934;2023-04-03T09:00:30;4.60;;;1.67;;
5175;SDS011;2607;50.934;6.934;2023-04-03T09:03:03;1.73;;;1.63;;
5175;SDS011;2607;50.934;6.934;2023-04-03T09:05:35;2.83;;;1.70;;
5175;SDS011;2607;50.934;6.934;2023-04-03T09:10:48;2.13;;;1.43;;
5175;SDS011;2607;50.934;6.934;2023-04-03T09:21:48;1.63;;;1.53;;
5175;SDS011;2607;50.934;6.934;2023-04-03T09:24:14;1.40;;;1.30;;
5175;SDS011;2607;50.934;6.934;2023-04-03T09:29:28;3.97;;;1.63;;
5175;SDS011;2607;50.934;6.934;2023-04-03T09:31:59;2.63;;;1.50;;
5175;SDS011;2607;50.934;6.934;2023-04-03T09:34:30;1.30;;;1.30;;
5175;SDS011;2607;50.934;6.934;2023-04-03T09:37:00;1.23;;;1.20;;
5175;SDS011;2607;50.934;6.934;2023-04-03T09:39:53;1.43;;;1.33;;
5175;SDS011;2607;50.934;6.934;2023-04-03T09:42:20;1.33;;;1.30;;
5175;SDS011;2607;50.934;6.934;2023-04-03T09:44:55;1.13;;;1.13;;
5175;SDS011;2607;50.934;6.934;2023-04-03T09:47:25;1.43;;;1.43;;
5175;SDS011;2607;50.934;6.934;2023-04-03T09:52:37;2.40;;;1.50;;
5175;SDS011;2607;50.934;6.934;2023-04-03T09:55:07;7.50;;;1.40;;
5175;SDS011;2607;50.934;6.934;2023-04-03T09:57:38;1.50;;;1.40;;
5175;SDS011;2607;50.934;6.934;2023-04-03T10:00:05;6.27;;;2.57;;
5175;SDS011;2607;50.934;6.934;2023-04-03T10:05:01;2.93;;;2.17;;
5175;SDS011;2607;50.934;6.934;2023-04-03T10:07:30;2.03;;;1.50;;
5175;SDS011;2607;50.934;6.934;2023-04-03T10:10:00;2.90;;;2.70;;
5175;SDS011;2607;50.934;6.934;2023-04-03T10:12:28;2.40;;;2.30;;
5175;SDS011;2607;50.934;6.934;2023-04-03T10:14:55;2.07;;;1.97;;
5175;SDS011;2607;50.934;6.934;2023-04-03T10:19:58;1.60;;;1.50;;
5175;SDS011;2607;50.934;6.934;2023-04-03T10:22:46;2.10;;;1.97;;
5175;SDS011;2607;50.934;6.934;2023-04-03T10:25:50;2.97;;;2.20;;
5175;SDS011;2607;50.934;6.934;2023-04-03T10:28:48;2.50;;;2.30;;
5175;SDS011;2607;50.934;6.934;2023-04-03T10:31:33;1.73;;;1.63;;
5175;SDS011;2607;50.934;6.934;2023-04-03T10:36:43;2.43;;;1.80;;
5175;SDS011;2607;50.934;6.934;2023-04-03T10:56:31;1.83;;;1.70;;
5175;SDS011;2607;50.934;6.934;2023-04-03T10:59:15;1.07;;;1.07;;
5175;SDS011;2607;50.934;6.934;2023-04-03T11:01:44;3.77;;;1.70;;
5175;SDS011;2607;50.934;6.934;2023-04-03T11:04:12;5.70;;;2.57;;
5175;SDS011;2607;50.934;6.934;2023-04-03T11:06:43;2.87;;;2.10;;
5175;SDS011;2607;50.934;6.934;2023-04-03T11:12:17;1.60;;;1.50;;
5175;SDS011;2607;50.934;6.934;2023-04-03T11:14:50;5.77;;;2.77;;
5175;SDS011;2607;50.934;6.934;2023-04-03T11:20:04;1.70;;;1.60;;
5175;SDS011;2607;50.934;6.934;2023-04-03T11:22:44;2.60;;;2.40;;
5175;SDS011;2607;50.934;6.934;2023-04-03T11:25:23;2.10;;;2.00;;
5175;SDS011;2607;50.934;6.934;2023-04-03T11:28:03;1.30;;;1.30;;
5175;SDS011;2607;50.934;6.934;2023-04-03T11:30:45;1.30;;;1.30;;
5175;SDS011;2607;50.934;6.934;2023-04-03T11:35:47;2.00;;;1.60;;
5175;SDS011;2607;50.934;6.934;2023-04-03T11:38:21;1.30;;;1.30;;
5175;SDS011;2607;50.934;6.934;2023-04-03T11:40:51;1.90;;;1.83;;
5175;SDS011;2607;50.934;6.934;2023-04-03T11:43:29;1.70;;;1.43;;
5175;SDS011;2607;50.934;6.934;2023-04-03T11:53:37;1.20;;;1.10;;
5175;SDS011;2607;50.934;6.934;2023-04-03T12:04:12;2.20;;;2.03;;
5175;SDS011;2607;50.934;6.934;2023-04-03T12:09:25;2.30;;;2.13;;
5175;SDS011;2607;50.934;6.934;2023-04-03T12:12:24;1.50;;;1.40;;
5175;SDS011;2607;50.934;6.934;2023-04-03T12:17:49;2.90;;;1.70;;
5175;SDS011;2607;50.934;6.934;2023-04-03T12:26:05;1.40;;;1.30;;
5175;SDS011;2607;50.934;6.934;2023-04-03T12:28:47;1.10;;;1.10;;
5175;SDS011;2607;50.934;6.934;2023-04-03T12:31:15;1.03;;;1.03;;
5175;SDS011;2607;50.934;6.934;2023-04-03T12:33:52;1.17;;;1.13;;
5175;SDS011;2607;50.934;6.934;2023-04-03T12:36:47;4.70;;;1.90;;
5175;SDS011;2607;50.934;6.934;2023-04-03T12:44:49;1.10;;;1.10;;
5175;SDS011;2607;50.934;6.934;2023-04-03T12:47:28;1.30;;;1.30;;
5175;SDS011;2607;50.934;6.934;2023-04-03T12:49:58;1.20;;;1.20;;
5175;SDS011;2607;50.934;6.934;2023-04-03T12:54:56;2.73;;;1.10;;
5175;SDS011;2607;50.934;6.934;2023-04-03T12:57:26;4.77;;;1.60;;
5175;SDS011;2607;50.934;6.934;2023-04-03T12:59:52;1.30;;;1.30;;
5175;SDS011;2607;50.934;6.934;2023-04-03T13:02:26;1.30;;;1.30;;
5175;SDS011;2607;50.934;6.934;2023-04-03T13:04:57;1.13;;;1.13;;
5175;SDS011;2607;50.934;6.934;2023-04-03T13:10:01;3.20;;;1.20;;
5175;SDS011;2607;50.934;6.934;2023-04-03T13:12:29;1.30;;;1.30;;
5175;SDS011;2607;50.934;6.934;2023-04-03T13:14:56;1.80;;;1.70;;
5175;SDS011;2607;50.934;6.934;2023-04-03T13:17:24;2.17;;;1.13;;
5175;SDS011;2607;50.934;6.934;2023-04-03T13:19:50;1.30;;;1.20;;
5175;SDS011;2607;50.934;6.934;2023-04-03T13:24:48;1.27;;;1.27;;
5175;SDS011;2607;50.934;6.934;2023-04-03T13:27:15;1.40;;;1.40;;
5175;SDS011;2607;50.934;6.934;2023-04-03T13:29:41;1.40;;;1.40;;
5175;SDS011;2607;50.934;6.934;2023-04-03T13:32:13;1.60;;;1.33;;
5175;SDS011;2607;50.934;6.934;2023-04-03T13:34:51;1.77;;;1.27;;
5175;SDS011;2607;50.934;6.934;2023-04-03T13:37:52;1.73;;;1.63;;
5175;SDS011;2607;50.934;6.934;2023-04-03T13:40:18;2.50;;;1.33;;
5175;SDS011;2607;50.934;6.934;2023-04-03T13:42:44;2.67;;;1.40;;
5175;SDS011;2607;50.934;6.934;2023-04-03T13:47:45;1.30;;;1.20;;
5175;SDS011;2607;50.934;6.934;2023-04-03T13:52:53;1.63;;;1.53;;
5175;SDS011;2607;50.934;6.934;2023-04-03T13:55:25;1.43;;;1.37;;
5175;SDS011;2607;50.934;6.934;2023-04-03T14:00:47;1.53;;;1.43;;
5175;SDS011;2607;50.934;6.934;2023-04-03T14:03:41;2.27;;;1.70;;
5175;SDS011;2607;50.934;6.934;2023-04-03T14:06:15;1.47;;;1.37;;
5175;SDS011;2607;50.934;6.934;2023-04-03T14:08:42;1.77;;;1.77;;
5175;SDS011;2607;50.934;6.934;2023-04-03T14:11:14;1.63;;;1.17;;
5175;SDS011;2607;50.934;6.934;2023-04-03T14:13:43;1.30;;;1.30;;
5175;SDS011;2607;50.934;6.934;2023-04-03T14:16:13;1.47;;;1.47;;
5175;SDS011;2607;50.934;6.934;2023-04-03T14:18:41;1.70;;;1.60;;
5175;SDS011;2607;50.934;6.934;2023-04-03T14:21:09;1.70;;;1.60;;
5175;SDS011;2607;50.934;6.934;2023-04-03T14:23:36;3.10;;;1.60;;
5175;SDS011;2607;50.934;6.934;2023-04-03T14:26:01;1.60;;;1.33;;
5175;SDS011;2607;50.934;6.934;2023-04-03T14:28:28;1.30;;;1.30;;
5175;SDS011;2607;50.934;6.934;2023-04-03T14:30:54;1.37;;;1.27;;
5175;SDS011;2607;50.934;6.934;2023-04-03T14:33:20;1.50;;;1.40;;
5175;SDS011;2607;50.934;6.934;2023-04-03T14:35:47;1.37;;;1.30;;
5175;SDS011;2607;50.934;6.934;2023-04-03T14:38:24;3.77;;;1.43;;
5175;SDS011;2607;50.934;6.934;2023-04-03T14:40:52;1.50;;;1.40;;
5175;SDS011;2607;50.934;6.934;2023-04-03T14:43:18;1.30;;;1.20;;
5175;SDS011;2607;50.934;6.934;2023-04-03T14:45:45;8.93;;;2.17;;
5175;SDS011;2607;50.934;6.934;2023-04-03T14:48:16;1.43;;;1.33;;
5175;SDS011;2607;50.934;6.934;2023-04-03T14:50:44;3.47;;;2.00;;
5175;SDS011;2607;50.934;6.934;2023-04-03T14:53:10;3.20;;;2.50;;
5175;SDS011;2607;50.934;6.934;2023-04-03T14:55:39;1.70;;;1.60;;
5175;SDS011;2607;50.934;6.934;2023-04-03T14:58:09;5.13;;;3.00;;
5175;SDS011;2607;50.934;6.934;2023-04-03T15:00:40;1.57;;;1.57;;
5175;SDS011;2607;50.934;6.934;2023-04-03T15:03:08;2.80;;;2.37;;
5175;SDS011;2607;50.934;6.934;2023-04-03T15:05:37;1.40;;;1.30;;
5175;SDS011;2607;50.934;6.934;2023-04-03T15:08:03;3.47;;;1.53;;
5175;SDS011;2607;50.934;6.934;2023-04-03T15:10:29;1.20;;;1.20;;
5175;SDS011;2607;50.934;6.934;2023-04-03T15:12:56;3.03;;;1.77;;
5175;SDS011;2607;50.934;6.934;2023-04-03T15:15:23;1.50;;;1.40;;
5175;SDS011;2607;50.934;6.934;2023-04-03T15:17:50;3.27;;;1.40;;
5175;SDS011;2607;50.934;6.934;2023-04-03T15:20:23;1.47;;;1.33;;
5175;SDS011;2607;50.934;6.934;2023-04-03T15:22:50;1.70;;;1.60;;
5175;SDS011;2607;50.934;6.934;2023-04-03T15:25:15;1.60;;;1.60;;
5175;SDS011;2607;50.934;6.934;2023-04-03T15:27:41;1.50;;;1.50;;
5175;SDS011;2607;50.934;6.934;2023-04-03T15:30:08;2.97;;;1.60;;
5175;SDS011;2607;50.934;6.934;2023-04-03T15:32:39;2.77;;;2.37;;
5175;SDS011;2607;50.934;6.934;2023-04-03T15:35:05;2.00;;;1.70;;
5175;SDS011;2607;50.934;6.934;2023-04-03T15:37:31;2.07;;;1.60;;
5175;SDS011;2607;50.934;6.934;2023-04-03T15:39:57;2.80;;;2.60;;
5175;SDS011;2607;50.934;6.934;2023-04-03T15:42:23;1.73;;;1.30;;
5175;SDS011;2607;50.934;6.934;2023-04-03T15:44:48;5.67;;;2.80;;
5175;SDS011;2607;50.934;6.934;2023-04-03T15:47:14;2.10;;;1.73;;
5175;SDS011;2607;50.934;6.934;2023-04-03T15:49:40;1.40;;;1.40;;
5175;SDS011;2607;50.934;6.934;2023-04-03T15:52:05;1.83;;;1.60;;
5175;SDS011;2607;50.934;6.934;2023-04-03T15:54:31;1.70;;;1.60;;
5175;SDS011;2607;50.934;6.934;2023-04-03T15:56:57;2.27;;;2.07;;
5175;SDS011;2607;50.934;6.934;2023-04-03T15:59:22;1.50;;;1.40;;
5175;SDS011;2607;50.934;6.934;2023-04-03T16:01:48;2.50;;;2.30;;
5175;SDS011;2607;50.934;6.934;2023-04-03T16:04:15;2.83;;;2.10;;
5175;SDS011;2607;50.934;6.934;2023-04-03T16:06:42;1.60;;;1.60;;
5175;SDS011;2607;50.934;6.934;2023-04-03T16:09:08;1.93;;;1.83;;
5175;SDS011;2607;50.934;6.934;2023-04-03T16:11:34;1.93;;;1.80;;
5175;SDS011;2607;50.934;6.934;2023-04-03T16:14:05;1.57;;;1.50;;
5175;SDS011;2607;50.934;6.934;2023-04-03T16:16:34;3.23;;;2.17;;
5175;SDS011;2607;50.934;6.934;2023-04-03T16:19:00;4.90;;;3.43;;
5175;SDS011;2607;50.934;6.934;2023-04-03T16:21:26;1.93;;;1.83;;
5175;SDS011;2607;50.934;6.934;2023-04-03T16:23:52;2.83;;;2.63;;
5175;SDS011;2607;50.934;6.934;2023-04-03T16:26:18;2.30;;;2.17;;
5175;SDS011;2607;50.934;6.934;2023-04-03T16:28:44;2.47;;;2.27;;
5175;SDS011;2607;50.934;6.934;2023-04-03T16:31:10;3.10;;;2.90;;
5175;SDS011;2607;50.934;6.934;2023-04-03T16:33:36;3.83;;;2.80;;
5175;SDS011;2607;50.934;6.934;2023-04-03T16:36:03;3.83;;;2.70;;
5175;SDS011;2607;50.934;6.934;2023-04-03T16:38:29;2.10;;;2.00;;
5175;SDS011;2607;50.934;6.934;2023-04-03T16:40:55;2.67;;;2.03;;
5175;SDS011;2607;50.934;6.934;2023-04-03T16:43:27;2.60;;;1.50;;
5175;SDS011;2607;50.934;6.934;2023-04-03T16:45:52;1.83;;;1.73;;
5175;SDS011;2607;50.934;6.934;2023-04-03T16:48:18;2.80;;;2.60;;
5175;SDS011;2607;50.934;6.934;2023-04-03T16:50:47;1.80;;;1.70;;
5175;SDS011;2607;50.934;6.934;2023-04-03T16:53:14;3.27;;;1.93;;
5175;SDS011;2607;50.934;6.934;2023-04-03T16:55:40;3.17;;;2.73;;
5175;SDS011;2607;50.934;6.934;2023-04-03T16:58:05;2.43;;;2.33;;
5175;SDS011;2607;50.934;6.934;2023-04-03T17:00:32;2.50;;;1.80;;
5175;SDS011;2607;50.934;6.934;2023-04-03T17:02:58;2.87;;;2.67;;
5175;SDS011;2607;50.934;6.934;2023-04-03T17:05:24;2.10;;;1.83;;
5175;SDS011;2607;50.934;6.934;2023-04-03T17:07:50;2.57;;;2.37;;
5175;SDS011;2607;50.934;6.934;2023-04-03T17:10:16;2.63;;;1.80;;
5175;SDS011;2607;50.934;6.934;2023-04-03T17:12:42;3.30;;;1.77;;